sensor_id;sensor_type;location;lat;lon;timestamp;P1;durP1;ratioP1;P2;durP2;ratioP2
19595;SDS011;9945;46.010;8.946;2022-12-18T00:01:01;7.70;;;6.37;;
19595;SDS011;9945;46.010;8.946;2022-12-18T00:03:31;7.20;;;6.50;;
19595;SDS011;9945;46.010;8.946;2022-12-18T00:05:58;7.50;;;6.70;;
19595;SDS011;9945;46.010;8.946;2022-12-18T00:08:26;6.97;;;6.33;;
19595;SDS011;9945;46.010;8.946;2022-12-18T00:10:52;8.27;;;6.47;;
19595;SDS011;9945;46.010;8.946;2022-12-18T00:13:20;8.13;;;6.90;;
19595;SDS011;9945;46.010;8.946;2022-12-18T00:15:48;7.50;;;6.70;;
19595;SDS011;9945;46.010;8.946;2022-12-18T00:18:15;10.30;;;6.97;;
19595;SDS011;9945;46.010;8.946;2022-12-18T00:20:42;7.27;;;6.57;;
19595;SDS011;9945;46.010;8.946;2022-12-18T00:23:09;8.07;;;6.83;;
19595;SDS011;9945;46.010;8.946;2022-12-18T00:25:39;10.03;;;7.10;;
19595;SDS011;9945;46.010;8.946;2022-12-18T00:28:05;7.50;;;6.80;;
19595;SDS011;9945;46.010;8.946;2022-12-18T00:30:32;7.80;;;7.00;;
19595;SDS011;9945;46.010;8.946;2022-12-18T00:33:00;7.53;;;6.70;;
19595;SDS011;9945;46.010;8.946;2022-12-18T00:35:27;10.13;;;7.47;;
19595;SDS011;9945;46.010;8.946;2022-12-18T00:37:54;7.47;;;6.77;;
19595;SDS011;9945;46.010;8.946;2022-12-18T00:40:21;7.10;;;6.40;;
19595;SDS011;9945;46.010;8.946;2022-12-18T00:42:48;7.03;;;6.20;;
19595;SDS011;9945;46.010;8.946;2022-12-18T00:45:22;7.67;;;6.97;;
19595;SDS011;9945;46.010;8.946;2022-12-18T00:47:50;10.40;;;6.43;;
19595;SDS011;9945;46.010;8.946;2022-12-18T00:50:18;7.00;;;6.30;;
19595;SDS011;9945;46.010;8.946;2022-12-18T00:52:45;8.60;;;6.00;;
19595;SDS011;9945;46.010;8.946;2022-12-18T00:55:12;6.43;;;5.83;;
19595;SDS011;9945;46.010;8.946;2022-12-18T00:57:40;6.60;;;6.10;;
19595;SDS011;9945;46.010;8.946;2022-12-18T01:00:08;6.07;;;5.43;;
19595;SDS011;9945;46.010;8.946;2022-12-18T01:02:37;5.53;;;5.13;;
19595;SDS011;9945;46.010;8.946;2022-12-18T01:05:04;6.03;;;5.50;;
19595;SDS011;9945;46.010;8.946;2022-12-18T01:07:33;6.77;;;5.43;;
19595;SDS011;9945;46.010;8.946;2022-12-18T01:10:00;6.10;;;5.50;;
19595;SDS011;9945;46.010;8.946;2022-12-18T01:12:27;6.10;;;5.50;;
19595;SDS011;9945;46.010;8.946;2022-12-18T01:14:53;6.47;;;5.20;;
19595;SDS011;9945;46.010;8.946;2022-12-18T01:17:21;5.60;;;4.90;;
19595;SDS011;9945;46.010;8.946;2022-12-18T01:19:47;5.10;;;4.60;;
19595;SDS011;9945;46.010;8.946;2022-12-18T01:22:14;5.03;;;4.63;;
19595;SDS011;9945;46.010;8.946;2022-12-18T01:24:43;5.77;;;4.90;;
19595;SDS011;9945;46.010;8.946;2022-12-18T01:27:10;5.43;;;4.83;;
19595;SDS011;9945;46.010;8.946;2022-12-18T01:29:37;5.67;;;5.17;;
19595;SDS011;9945;46.010;8.946;2022-12-18T01:32:04;5.87;;;5.33;;
19595;SDS011;9945;46.010;8.946;2022-12-18T01:34:31;5.20;;;4.80;;
19595;SDS011;9945;46.010;8.946;2022-12-18T01:37:00;5.80;;;5.30;;
19595;SDS011;9945;46.010;8.946;2022-12-18T01:39:29;5.80;;;5.30;;
19595;SDS011;9945;46.010;8.946;2022-12-18T01:41:58;5.53;;;5.03;;
19595;SDS011;9945;46.010;8.946;2022-12-18T01:47:29;4.87;;;4.43;;
19595;SDS011;9945;46.010;8.946;2022-12-18T01:50:00;5.20;;;4.60;;
19595;SDS011;9945;46.010;8.946;2022-12-18T01:52:31;5.97;;;4.87;;
19595;SDS011;9945;46.010;8.946;2022-12-18T01:54:59;5.63;;;4.53;;
19595;SDS011;9945;46.010;8.946;2022-12-18T01:57:29;4.20;;;3.90;;
19595;SDS011;9945;46.010;8.946;2022-12-18T01:59:59;4.60;;;4.20;;
19595;SDS011;9945;46.010;8.946;2022-12-18T02:02:27;4.40;;;4.00;;
19595;SDS011;9945;46.010;8.946;2022-12-18T02:04:58;5.47;;;5.03;;
19595;SDS011;9945;46.010;8.946;2022-12-18T02:07:28;4.40;;;4.00;;
19595;SDS011;9945;46.010;8.946;2022-12-18T02:10:04;4.30;;;3.90;;
19595;SDS011;9945;46.010;8.946;2022-12-18T02:12:42;5.37;;;4.03;;
19595;SDS011;9945;46.010;8.946;2022-12-18T02:15:13;5.70;;;4.70;;
19595;SDS011;9945;46.010;8.946;2022-12-18T02:17:46;4.77;;;4.30;;
19595;SDS011;9945;46.010;8.946;2022-12-18T02:20:20;5.10;;;4.63;;
19595;SDS011;9945;46.010;8.946;2022-12-18T02:22:59;5.50;;;5.00;;
19595;SDS011;9945;46.010;8.946;2022-12-18T02:25:38;4.90;;;4.50;;
19595;SDS011;9945;46.010;8.946;2022-12-18T02:28:15;4.70;;;4.30;;
19595;SDS011;9945;46.010;8.946;2022-12-18T02:30:46;4.77;;;4.30;;
19595;SDS011;9945;46.010;8.946;2022-12-18T02:33:15;4.60;;;4.13;;
19595;SDS011;9945;46.010;8.946;2022-12-18T02:35:43;4.50;;;4.10;;
19595;SDS011;9945;46.010;8.946;2022-12-18T02:38:12;4.07;;;3.70;;
19595;SDS011;9945;46.010;8.946;2022-12-18T02:40:40;4.77;;;4.00;;
19595;SDS011;9945;46.010;8.946;2022-12-18T02:43:09;3.87;;;3.57;;
19595;SDS011;9945;46.010;8.946;2022-12-18T02:45:47;3.97;;;3.67;;
19595;SDS011;9945;46.010;8.946;2022-12-18T02:48:22;4.60;;;4.20;;
19595;SDS011;9945;46.010;8.946;2022-12-18T02:50:52;4.47;;;3.93;;
19595;SDS011;9945;46.010;8.946;2022-12-18T02:53:27;3.77;;;3.47;;
19595;SDS011;9945;46.010;8.946;2022-12-18T02:56:02;4.87;;;3.90;;
19595;SDS011;9945;46.010;8.946;2022-12-18T02:58:34;6.40;;;4.20;;
19595;SDS011;9945;46.010;8.946;2022-12-18T03:01:13;3.60;;;3.30;;
19595;SDS011;9945;46.010;8.946;2022-12-18T03:03:43;3.40;;;3.10;;
19595;SDS011;9945;46.010;8.946;2022-12-18T03:06:19;4.73;;;3.43;;
19595;SDS011;9945;46.010;8.946;2022-12-18T03:08:51;3.03;;;2.83;;
19595;SDS011;9945;46.010;8.946;2022-12-18T03:11:24;3.87;;;3.10;;
19595;SDS011;9945;46.010;8.946;2022-12-18T03:14:07;3.10;;;2.90;;
19595;SDS011;9945;46.010;8.946;2022-12-18T03:16:39;3.10;;;2.90;;
19595;SDS011;9945;46.010;8.946;2022-12-18T03:19:08;3.53;;;3.23;;
19595;SDS011;9945;46.010;8.946;2022-12-18T03:21:42;3.90;;;3.60;;
19595;SDS011;9945;46.010;8.946;2022-12-18T03:24:11;3.57;;;3.27;;
19595;SDS011;9945;46.010;8.946;2022-12-18T03:26:39;3.70;;;3.17;;
19595;SDS011;9945;46.010;8.946;2022-12-18T03:29:11;3.93;;;3.60;;
19595;SDS011;9945;46.010;8.946;2022-12-18T03:31:45;4.17;;;3.77;;
19595;SDS011;9945;46.010;8.946;2022-12-18T03:34:17;5.20;;;3.50;;
19595;SDS011;9945;46.010;8.946;2022-12-18T03:36:48;4.67;;;4.30;;
19595;SDS011;9945;46.010;8.946;2022-12-18T03:39:15;4.60;;;3.57;;
19595;SDS011;9945;46.010;8.946;2022-12-18T03:41:43;4.33;;;4.00;;
19595;SDS011;9945;46.010;8.946;2022-12-18T03:44:13;4.13;;;3.73;;
19595;SDS011;9945;46.010;8.946;2022-12-18T03:46:47;4.43;;;4.03;;
19595;SDS011;9945;46.010;8.946;2022-12-18T03:49:25;4.33;;;3.93;;
19595;SDS011;9945;46.010;8.946;2022-12-18T03:52:01;4.10;;;3.70;;
19595;SDS011;9945;46.010;8.946;2022-12-18T03:54:31;3.80;;;3.50;;
19595;SDS011;9945;46.010;8.946;2022-12-18T03:57:03;3.83;;;3.43;;
19595;SDS011;9945;46.010;8.946;2022-12-18T03:59:33;3.50;;;3.20;;
19595;SDS011;9945;46.010;8.946;2022-12-18T04:02:04;3.60;;;3.30;;
19595;SDS011;9945;46.010;8.946;2022-12-18T04:04:33;3.00;;;2.70;;
19595;SDS011;9945;46.010;8.946;2022-12-18T04:07:02;3.07;;;2.83;;
19595;SDS011;9945;46.010;8.946;2022-12-18T04:09:29;3.00;;;2.80;;
19595;SDS011;9945;46.010;8.946;2022-12-18T04:11:58;3.10;;;2.90;;
19595;SDS011;9945;46.010;8.946;2022-12-18T04:14:25;3.13;;;2.83;;
19595;SDS011;9945;46.010;8.946;2022-12-18T04:16:52;2.70;;;2.50;;
19595;SDS011;9945;46.010;8.946;2022-12-18T04:19:20;6.40;;;3.17;;
19595;SDS011;9945;46.010;8.946;2022-12-18T04:21:47;2.60;;;2.50;;
19595;SDS011;9945;46.010;8.946;2022-12-18T04:24:14;3.40;;;3.10;;
19595;SDS011;9945;46.010;8.946;2022-12-18T04:26:41;3.47;;;3.07;;
19595;SDS011;9945;46.010;8.946;2022-12-18T04:29:07;3.20;;;3.00;;
19595;SDS011;9945;46.010;8.946;2022-12-18T04:31:34;2.93;;;2.73;;
19595;SDS011;9945;46.010;8.946;2022-12-18T04:34:01;3.33;;;3.13;;
19595;SDS011;9945;46.010;8.946;2022-12-18T04:36:29;2.90;;;2.70;;
19595;SDS011;9945;46.010;8.946;2022-12-18T04:38:56;2.77;;;2.57;;
19595;SDS011;9945;46.010;8.946;2022-12-18T04:41:24;2.80;;;2.60;;
19595;SDS011;9945;46.010;8.946;2022-12-18T04:43:50;2.60;;;2.40;;
19595;SDS011;9945;46.010;8.946;2022-12-18T04:46:17;3.07;;;2.87;;
19595;SDS011;9945;46.010;8.946;2022-12-18T04:48:45;2.77;;;2.50;;
19595;SDS011;9945;46.010;8.946;2022-12-18T04:51:12;2.80;;;2.60;;
19595;SDS011;9945;46.010;8.946;2022-12-18T04:53:41;2.60;;;2.40;;
19595;SDS011;9945;46.010;8.946;2022-12-18T04:56:09;2.73;;;2.53;;
19595;SDS011;9945;46.010;8.946;2022-12-18T04:58:37;2.20;;;2.10;;
19595;SDS011;9945;46.010;8.946;2022-12-18T05:01:06;2.30;;;2.10;;
19595;SDS011;9945;46.010;8.946;2022-12-18T05:03:34;2.50;;;2.30;;
19595;SDS011;9945;46.010;8.946;2022-12-18T05:06:01;2.40;;;2.20;;
19595;SDS011;9945;46.010;8.946;2022-12-18T05:08:29;2.57;;;2.37;;
19595;SDS011;9945;46.010;8.946;2022-12-18T05:11:00;3.07;;;2.80;;
19595;SDS011;9945;46.010;8.946;2022-12-18T05:13:28;2.40;;;2.20;;
19595;SDS011;9945;46.010;8.946;2022-12-18T05:15:56;2.80;;;2.60;;
19595;SDS011;9945;46.010;8.946;2022-12-18T05:18:23;2.27;;;2.17;;
19595;SDS011;9945;46.010;8.946;2022-12-18T05:20:50;2.10;;;2.00;;
19595;SDS011;9945;46.010;8.946;2022-12-18T05:23:17;2.10;;;2.00;;
19595;SDS011;9945;46.010;8.946;2022-12-18T05:25:46;1.83;;;1.73;;
19595;SDS011;9945;46.010;8.946;2022-12-18T05:28:18;2.30;;;2.10;;
19595;SDS011;9945;46.010;8.946;2022-12-18T05:30:47;2.97;;;2.10;;
19595;SDS011;9945;46.010;8.946;2022-12-18T05:33:15;2.50;;;2.30;;
19595;SDS011;9945;46.010;8.946;2022-12-18T05:35:42;2.20;;;1.90;;
19595;SDS011;9945;46.010;8.946;2022-12-18T05:38:09;2.53;;;2.13;;
19595;SDS011;9945;46.010;8.946;2022-12-18T05:40:36;2.17;;;2.07;;
19595;SDS011;9945;46.010;8.946;2022-12-18T05:43:03;2.30;;;2.20;;
19595;SDS011;9945;46.010;8.946;2022-12-18T05:45:32;2.10;;;2.00;;
19595;SDS011;9945;46.010;8.946;2022-12-18T05:48:02;2.30;;;2.20;;
19595;SDS011;9945;46.010;8.946;2022-12-18T05:50:30;2.10;;;2.00;;
19595;SDS011;9945;46.010;8.946;2022-12-18T05:52:57;2.57;;;2.43;;
19595;SDS011;9945;46.010;8.946;2022-12-18T05:55:24;2.80;;;2.40;;
19595;SDS011;9945;46.010;8.946;2022-12-18T05:57:51;2.53;;;2.33;;
19595;SDS011;9945;46.010;8.946;2022-12-18T06:00:18;2.97;;;2.70;;
19595;SDS011;9945;46.010;8.946;2022-12-18T06:02:47;2.57;;;2.37;;
19595;SDS011;9945;46.010;8.946;2022-12-18T06:05:14;2.70;;;2.50;;
19595;SDS011;9945;46.010;8.946;2022-12-18T06:07:41;2.60;;;2.40;;
19595;SDS011;9945;46.010;8.946;2022-12-18T06:10:08;3.17;;;2.87;;
19595;SDS011;9945;46.010;8.946;2022-12-18T06:12:35;2.53;;;2.33;;
19595;SDS011;9945;46.010;8.946;2022-12-18T06:15:02;2.73;;;2.53;;
19595;SDS011;9945;46.010;8.946;2022-12-18T06:17:29;3.10;;;2.67;;
19595;SDS011;9945;46.010;8.946;2022-12-18T06:19:58;2.17;;;2.07;;
19595;SDS011;9945;46.010;8.946;2022-12-18T06:22:26;3.10;;;2.90;;
19595;SDS011;9945;46.010;8.946;2022-12-18T06:24:53;2.90;;;2.70;;
19595;SDS011;9945;46.010;8.946;2022-12-18T06:27:20;2.80;;;2.60;;
19595;SDS011;9945;46.010;8.946;2022-12-18T06:29:47;2.93;;;2.73;;
19595;SDS011;9945;46.010;8.946;2022-12-18T06:32:14;2.63;;;2.37;;
19595;SDS011;9945;46.010;8.946;2022-12-18T06:34:40;2.83;;;2.63;;
19595;SDS011;9945;46.010;8.946;2022-12-18T06:37:09;2.73;;;2.47;;
19595;SDS011;9945;46.010;8.946;2022-12-18T06:39:36;2.80;;;2.60;;
19595;SDS011;9945;46.010;8.946;2022-12-18T06:42:02;3.67;;;2.70;;
19595;SDS011;9945;46.010;8.946;2022-12-18T06:44:30;2.83;;;2.63;;
19595;SDS011;9945;46.010;8.946;2022-12-18T06:46:56;2.70;;;2.33;;
19595;SDS011;9945;46.010;8.946;2022-12-18T06:49:23;2.93;;;2.40;;
19595;SDS011;9945;46.010;8.946;2022-12-18T06:51:50;2.53;;;2.33;;
19595;SDS011;9945;46.010;8.946;2022-12-18T06:54:18;2.13;;;2.03;;
19595;SDS011;9945;46.010;8.946;2022-12-18T06:56:45;2.23;;;2.07;;
19595;SDS011;9945;46.010;8.946;2022-12-18T06:59:13;2.50;;;2.30;;
19595;SDS011;9945;46.010;8.946;2022-12-18T07:01:40;2.30;;;2.10;;
19595;SDS011;9945;46.010;8.946;2022-12-18T07:04:07;1.97;;;1.87;;
19595;SDS011;9945;46.010;8.946;2022-12-18T07:06:34;2.70;;;2.50;;
19595;SDS011;9945;46.010;8.946;2022-12-18T07:09:01;2.53;;;2.40;;
19595;SDS011;9945;46.010;8.946;2022-12-18T07:11:29;4.70;;;2.20;;
19595;SDS011;9945;46.010;8.946;2022-12-18T07:13:58;2.43;;;2.30;;
19595;SDS011;9945;46.010;8.946;2022-12-18T07:16:25;2.20;;;2.10;;
19595;SDS011;9945;46.010;8.946;2022-12-18T07:18:53;2.03;;;1.80;;
19595;SDS011;9945;46.010;8.946;2022-12-18T07:21:22;2.27;;;2.07;;
19595;SDS011;9945;46.010;8.946;2022-12-18T07:23:50;2.30;;;2.20;;
19595;SDS011;9945;46.010;8.946;2022-12-18T07:26:17;3.13;;;2.87;;
19595;SDS011;9945;46.010;8.946;2022-12-18T07:28:47;3.43;;;2.43;;
19595;SDS011;9945;46.010;8.946;2022-12-18T07:31:15;3.00;;;2.70;;
19595;SDS011;9945;46.010;8.946;2022-12-18T07:33:44;2.97;;;2.77;;
19595;SDS011;9945;46.010;8.946;2022-12-18T07:36:12;2.93;;;2.43;;
19595;SDS011;9945;46.010;8.946;2022-12-18T07:38:40;3.10;;;2.80;;
19595;SDS011;9945;46.010;8.946;2022-12-18T07:41:08;3.27;;;2.97;;
19595;SDS011;9945;46.010;8.946;2022-12-18T07:43:35;3.37;;;2.80;;
19595;SDS011;9945;46.010;8.946;2022-12-18T07:46:05;3.20;;;2.90;;
19595;SDS011;9945;46.010;8.946;2022-12-18T07:48:32;2.90;;;2.70;;
19595;SDS011;9945;46.010;8.946;2022-12-18T07:50:59;2.73;;;2.53;;
19595;SDS011;9945;46.010;8.946;2022-12-18T07:53:26;2.47;;;2.27;;
19595;SDS011;9945;46.010;8.946;2022-12-18T07:55:54;3.33;;;2.47;;
19595;SDS011;9945;46.010;8.946;2022-12-18T07:58:22;4.20;;;2.90;;
19595;SDS011;9945;46.010;8.946;2022-12-18T08:00:49;3.70;;;2.60;;
19595;SDS011;9945;46.010;8.946;2022-12-18T08:03:18;4.13;;;2.87;;
19595;SDS011;9945;46.010;8.946;2022-12-18T08:05:45;2.40;;;2.20;;
19595;SDS011;9945;46.010;8.946;2022-12-18T08:08:12;2.90;;;2.37;;
19595;SDS011;9945;46.010;8.946;2022-12-18T08:10:39;3.17;;;2.87;;
19595;SDS011;9945;46.010;8.946;2022-12-18T08:13:06;2.30;;;2.20;;
19595;SDS011;9945;46.010;8.946;2022-12-18T08:15:33;4.93;;;3.53;;
19595;SDS011;9945;46.010;8.946;2022-12-18T08:18:00;3.47;;;2.83;;
19595;SDS011;9945;46.010;8.946;2022-12-18T08:20:28;2.43;;;2.17;;
19595;SDS011;9945;46.010;8.946;2022-12-18T08:22:55;2.77;;;2.10;;
19595;SDS011;9945;46.010;8.946;2022-12-18T08:25:23;2.20;;;2.10;;
19595;SDS011;9945;46.010;8.946;2022-12-18T08:27:50;3.77;;;2.30;;
19595;SDS011;9945;46.010;8.946;2022-12-18T08:30:17;3.30;;;2.93;;
19595;SDS011;9945;46.010;8.946;2022-12-18T08:32:44;2.70;;;2.50;;
19595;SDS011;9945;46.010;8.946;2022-12-18T08:35:11;2.43;;;2.30;;
19595;SDS011;9945;46.010;8.946;2022-12-18T08:37:39;2.00;;;1.90;;
19595;SDS011;9945;46.010;8.946;2022-12-18T08:40:07;2.07;;;1.97;;
19595;SDS011;9945;46.010;8.946;2022-12-18T08:42:35;6.13;;;3.50;;
19595;SDS011;9945;46.010;8.946;2022-12-18T08:45:19;3.47;;;2.70;;
19595;SDS011;9945;46.010;8.946;2022-12-18T08:47:46;2.73;;;2.53;;
19595;SDS011;9945;46.010;8.946;2022-12-18T08:50:12;2.50;;;2.30;;
19595;SDS011;9945;46.010;8.946;2022-12-18T08:52:41;2.60;;;2.40;;
19595;SDS011;9945;46.010;8.946;2022-12-18T08:55:08;3.00;;;2.80;;
19595;SDS011;9945;46.010;8.946;2022-12-18T08:57:35;3.03;;;2.73;;
19595;SDS011;9945;46.010;8.946;2022-12-18T09:00:02;2.77;;;2.40;;
19595;SDS011;9945;46.010;8.946;2022-12-18T09:02:30;2.50;;;2.30;;
19595;SDS011;9945;46.010;8.946;2022-12-18T09:04:57;2.47;;;2.27;;
19595;SDS011;9945;46.010;8.946;2022-12-18T09:07:24;2.97;;;2.77;;
19595;SDS011;9945;46.010;8.946;2022-12-18T09:09:52;2.67;;;2.47;;
19595;SDS011;9945;46.010;8.946;2022-12-18T09:12:19;2.40;;;2.20;;
19595;SDS011;9945;46.010;8.946;2022-12-18T09:14:46;3.30;;;2.33;;
19595;SDS011;9945;46.010;8.946;2022-12-18T09:17:13;2.47;;;2.30;;
19595;SDS011;9945;46.010;8.946;2022-12-18T09:19:39;2.60;;;2.40;;
19595;SDS011;9945;46.010;8.946;2022-12-18T09:22:06;3.27;;;2.70;;
19595;SDS011;9945;46.010;8.946;2022-12-18T09:24:34;2.40;;;2.20;;
19595;SDS011;9945;46.010;8.946;2022-12-18T09:27:03;3.27;;;2.20;;
19595;SDS011;9945;46.010;8.946;2022-12-18T09:29:29;3.60;;;2.33;;
19595;SDS011;9945;46.010;8.946;2022-12-18T09:31:56;4.23;;;2.10;;
19595;SDS011;9945;46.010;8.946;2022-12-18T09:34:23;4.63;;;1.90;;
19595;SDS011;9945;46.010;8.946;2022-12-18T09:36:50;2.50;;;2.30;;
19595;SDS011;9945;46.010;8.946;2022-12-18T09:39:17;2.97;;;2.70;;
19595;SDS011;9945;46.010;8.946;2022-12-18T09:41:46;3.43;;;2.53;;
19595;SDS011;9945;46.010;8.946;2022-12-18T09:44:21;3.37;;;2.70;;
19595;SDS011;9945;46.010;8.946;2022-12-18T09:46:53;2.90;;;2.50;;
19595;SDS011;9945;46.010;8.946;2022-12-18T09:49:35;2.80;;;2.60;;
19595;SDS011;9945;46.010;8.946;2022-12-18T09:52:08;3.03;;;2.43;;
19595;SDS011;9945;46.010;8.946;2022-12-18T09:54:39;2.73;;;2.53;;
19595;SDS011;9945;46.010;8.946;2022-12-18T09:57:13;2.67;;;2.50;;
19595;SDS011;9945;46.010;8.946;2022-12-18T09:59:44;2.60;;;2.40;;
19595;SDS011;9945;46.010;8.946;2022-12-18T10:02:16;4.82;;;2.85;;
19595;SDS011;9945;46.010;8.946;2022-12-18T10:04:48;2.92;;;2.72;;
19595;SDS011;9945;46.010;8.946;2022-12-18T10:07:27;3.95;;;2.72;;
19595;SDS011;9945;46.010;8.946;2022-12-18T10:10:04;2.97;;;2.78;;
19595;SDS011;9945;46.010;8.946;2022-12-18T10:12:40;3.88;;;3.10;;
19595;SDS011;9945;46.010;8.946;2022-12-18T10:15:14;3.38;;;2.83;;
19595;SDS011;9945;46.010;8.946;2022-12-18T10:17:50;5.93;;;3.03;;
19595;SDS011;9945;46.010;8.946;2022-12-18T10:20:24;2.90;;;2.70;;
19595;SDS011;9945;46.010;8.946;2022-12-18T10:22:59;3.13;;;2.93;;
19595;SDS011;9945;46.010;8.946;2022-12-18T10:25:31;6.97;;;5.20;;
19595;SDS011;9945;46.010;8.946;2022-12-18T10:28:07;3.30;;;3.00;;
19595;SDS011;9945;46.010;8.946;2022-12-18T10:30:42;3.90;;;2.78;;
19595;SDS011;9945;46.010;8.946;2022-12-18T10:33:10;3.45;;;3.15;;
19595;SDS011;9945;46.010;8.946;2022-12-18T10:35:38;4.25;;;3.00;;
19595;SDS011;9945;46.010;8.946;2022-12-18T10:38:20;3.25;;;3.05;;
19595;SDS011;9945;46.010;8.946;2022-12-18T10:40:49;4.65;;;3.00;;
19595;SDS011;9945;46.010;8.946;2022-12-18T10:43:22;3.40;;;2.90;;
19595;SDS011;9945;46.010;8.946;2022-12-18T10:46:04;3.50;;;3.17;;
19595;SDS011;9945;46.010;8.946;2022-12-18T10:48:40;4.32;;;3.15;;
19595;SDS011;9945;46.010;8.946;2022-12-18T10:51:19;4.95;;;3.20;;
19595;SDS011;9945;46.010;8.946;2022-12-18T10:53:51;3.13;;;2.67;;
19595;SDS011;9945;46.010;8.946;2022-12-18T10:56:20;3.10;;;2.90;;
19595;SDS011;9945;46.010;8.946;2022-12-18T10:58:55;3.72;;;2.78;;
19595;SDS011;9945;46.010;8.946;2022-12-18T11:01:24;3.10;;;2.90;;
19595;SDS011;9945;46.010;8.946;2022-12-18T11:04:01;3.88;;;3.58;;
19595;SDS011;9945;46.010;8.946;2022-12-18T11:06:33;4.18;;;3.83;;
19595;SDS011;9945;46.010;8.946;2022-12-18T11:09:19;4.30;;;3.90;;
19595;SDS011;9945;46.010;8.946;2022-12-18T11:11:48;4.43;;;4.13;;
19595;SDS011;9945;46.010;8.946;2022-12-18T11:14:18;4.03;;;3.72;;
19595;SDS011;9945;46.010;8.946;2022-12-18T11:16:50;4.18;;;3.83;;
19595;SDS011;9945;46.010;8.946;2022-12-18T11:19:23;4.15;;;3.70;;
19595;SDS011;9945;46.010;8.946;2022-12-18T11:22:02;3.88;;;3.58;;
19595;SDS011;9945;46.010;8.946;2022-12-18T11:24:49;4.25;;;3.85;;
19595;SDS011;9945;46.010;8.946;2022-12-18T11:27:19;4.90;;;3.80;;
19595;SDS011;9945;46.010;8.946;2022-12-18T11:29:47;4.13;;;3.72;;
19595;SDS011;9945;46.010;8.946;2022-12-18T11:35:03;4.10;;;3.80;;
19595;SDS011;9945;46.010;8.946;2022-12-18T11:37:41;5.05;;;3.95;;
19595;SDS011;9945;46.010;8.946;2022-12-18T11:40:14;5.25;;;4.20;;
19595;SDS011;9945;46.010;8.946;2022-12-18T11:42:45;5.00;;;4.10;;
19595;SDS011;9945;46.010;8.946;2022-12-18T11:45:24;4.72;;;3.90;;
19595;SDS011;9945;46.010;8.946;2022-12-18T11:47:57;4.15;;;3.83;;
19595;SDS011;9945;46.010;8.946;2022-12-18T11:50:29;4.50;;;4.10;;
19595;SDS011;9945;46.010;8.946;2022-12-18T11:53:04;4.70;;;4.40;;
19595;SDS011;9945;46.010;8.946;2022-12-18T11:55:37;4.80;;;4.43;;
19595;SDS011;9945;46.010;8.946;2022-12-18T11:58:10;5.18;;;4.40;;
19595;SDS011;9945;46.010;8.946;2022-12-18T12:00:43;6.57;;;4.35;;
19595;SDS011;9945;46.010;8.946;2022-12-18T12:03:21;5.22;;;4.00;;
19595;SDS011;9945;46.010;8.946;2022-12-18T12:06:04;4.80;;;4.40;;
19595;SDS011;9945;46.010;8.946;2022-12-18T12:08:40;5.32;;;4.25;;
19595;SDS011;9945;46.010;8.946;2022-12-18T12:11:18;5.18;;;4.45;;
19595;SDS011;9945;46.010;8.946;2022-12-18T12:14:01;5.38;;;4.32;;
19595;SDS011;9945;46.010;8.946;2022-12-18T12:16:37;4.15;;;3.70;;
19595;SDS011;9945;46.010;8.946;2022-12-18T12:19:19;8.85;;;4.28;;
19595;SDS011;9945;46.010;8.946;2022-12-18T12:21:58;5.88;;;4.35;;
19595;SDS011;9945;46.010;8.946;2022-12-18T12:24:34;4.18;;;3.78;;
19595;SDS011;9945;46.010;8.946;2022-12-18T12:27:15;6.57;;;4.00;;
19595;SDS011;9945;46.010;8.946;2022-12-18T12:29:49;7.05;;;4.03;;
19595;SDS011;9945;46.010;8.946;2022-12-18T12:32:30;4.30;;;3.97;;
19595;SDS011;9945;46.010;8.946;2022-12-18T12:35:11;5.22;;;4.72;;
19595;SDS011;9945;46.010;8.946;2022-12-18T12:37:51;4.32;;;3.78;;
19595;SDS011;9945;46.010;8.946;2022-12-18T12:40:27;4.68;;;4.38;;
19595;SDS011;9945;46.010;8.946;2022-12-18T12:42:57;5.85;;;5.18;;
19595;SDS011;9945;46.010;8.946;2022-12-18T12:45:41;5.00;;;4.60;;
19595;SDS011;9945;46.010;8.946;2022-12-18T12:48:15;8.15;;;4.90;;
19595;SDS011;9945;46.010;8.946;2022-12-18T12:50:47;5.72;;;5.18;;
19595;SDS011;9945;46.010;8.946;2022-12-18T12:53:19;5.53;;;5.03;;
19595;SDS011;9945;46.010;8.946;2022-12-18T12:55:50;7.07;;;5.60;;
19595;SDS011;9945;46.010;8.946;2022-12-18T12:58:23;6.15;;;4.18;;
19595;SDS011;9945;46.010;8.946;2022-12-18T13:01:01;7.50;;;6.25;;
19595;SDS011;9945;46.010;8.946;2022-12-18T13:03:45;4.72;;;4.35;;
19595;SDS011;9945;46.010;8.946;2022-12-18T13:06:23;6.30;;;5.05;;
19595;SDS011;9945;46.010;8.946;2022-12-18T13:09:02;4.13;;;3.70;;
19595;SDS011;9945;46.010;8.946;2022-12-18T13:11:31;4.20;;;3.90;;
19595;SDS011;9945;46.010;8.946;2022-12-18T13:14:29;3.92;;;3.63;;
19595;SDS011;9945;46.010;8.946;2022-12-18T13:17:16;3.70;;;3.40;;
19595;SDS011;9945;46.010;8.946;2022-12-18T13:20:09;3.45;;;3.15;;
19595;SDS011;9945;46.010;8.946;2022-12-18T13:22:40;4.65;;;3.60;;
19595;SDS011;9945;46.010;8.946;2022-12-18T13:30:46;5.65;;;3.60;;
19595;SDS011;9945;46.010;8.946;2022-12-18T13:33:37;6.18;;;3.92;;
19595;SDS011;9945;46.010;8.946;2022-12-18T13:36:14;5.40;;;4.78;;
19595;SDS011;9945;46.010;8.946;2022-12-18T13:39:08;4.13;;;3.75;;
19595;SDS011;9945;46.010;8.946;2022-12-18T13:41:37;4.05;;;3.63;;
19595;SDS011;9945;46.010;8.946;2022-12-18T13:44:10;4.30;;;3.72;;
19595;SDS011;9945;46.010;8.946;2022-12-18T13:46:42;5.00;;;4.60;;
19595;SDS011;9945;46.010;8.946;2022-12-18T13:49:16;5.68;;;4.53;;
19595;SDS011;9945;46.010;8.946;2022-12-18T13:51:48;4.97;;;4.57;;
19595;SDS011;9945;46.010;8.946;2022-12-18T13:54:19;5.15;;;4.75;;
19595;SDS011;9945;46.010;8.946;2022-12-18T13:56:50;4.85;;;4.35;;
19595;SDS011;9945;46.010;8.946;2022-12-18T13:59:18;4.88;;;4.47;;
19595;SDS011;9945;46.010;8.946;2022-12-18T14:01:48;4.38;;;4.00;;
19595;SDS011;9945;46.010;8.946;2022-12-18T14:04:22;4.65;;;4.18;;
19595;SDS011;9945;46.010;8.946;2022-12-18T14:06:51;5.05;;;4.65;;
19595;SDS011;9945;46.010;8.946;2022-12-18T14:09:23;4.80;;;4.28;;
19595;SDS011;9945;46.010;8.946;2022-12-18T14:11:53;5.10;;;4.70;;
19595;SDS011;9945;46.010;8.946;2022-12-18T14:14:43;6.80;;;4.57;;
19595;SDS011;9945;46.010;8.946;2022-12-18T14:17:12;7.30;;;6.47;;
19595;SDS011;9945;46.010;8.946;2022-12-18T14:19:43;6.55;;;5.95;;
19595;SDS011;9945;46.010;8.946;2022-12-18T14:22:14;5.30;;;4.90;;
19595;SDS011;9945;46.010;8.946;2022-12-18T14:24:44;5.18;;;4.78;;
19595;SDS011;9945;46.010;8.946;2022-12-18T14:27:20;8.50;;;5.07;;
19595;SDS011;9945;46.010;8.946;2022-12-18T14:29:49;5.37;;;4.97;;
19595;SDS011;9945;46.010;8.946;2022-12-18T14:32:16;5.47;;;4.70;;
19595;SDS011;9945;46.010;8.946;2022-12-18T14:34:45;5.40;;;4.90;;
19595;SDS011;9945;46.010;8.946;2022-12-18T14:37:14;5.73;;;5.17;;
19595;SDS011;9945;46.010;8.946;2022-12-18T14:39:54;6.33;;;5.60;;
19595;SDS011;9945;46.010;8.946;2022-12-18T14:42:23;5.57;;;5.07;;
19595;SDS011;9945;46.010;8.946;2022-12-18T14:47:53;7.07;;;5.57;;
19595;SDS011;9945;46.010;8.946;2022-12-18T14:50:20;6.90;;;5.30;;
19595;SDS011;9945;46.010;8.946;2022-12-18T14:52:47;6.50;;;5.60;;
19595;SDS011;9945;46.010;8.946;2022-12-18T14:55:17;6.40;;;5.27;;
19595;SDS011;9945;46.010;8.946;2022-12-18T14:57:46;5.83;;;4.90;;
19595;SDS011;9945;46.010;8.946;2022-12-18T15:00:18;6.03;;;5.53;;
19595;SDS011;9945;46.010;8.946;2022-12-18T15:02:48;5.90;;;5.40;;
19595;SDS011;9945;46.010;8.946;2022-12-18T15:05:17;6.13;;;5.63;;
19595;SDS011;9945;46.010;8.946;2022-12-18T15:07:48;6.90;;;6.13;;
19595;SDS011;9945;46.010;8.946;2022-12-18T15:10:18;6.17;;;5.67;;
19595;SDS011;9945;46.010;8.946;2022-12-18T15:12:47;6.43;;;5.83;;
19595;SDS011;9945;46.010;8.946;2022-12-18T15:18:13;6.33;;;5.73;;
19595;SDS011;9945;46.010;8.946;2022-12-18T15:20:43;6.27;;;5.70;;
19595;SDS011;9945;46.010;8.946;2022-12-18T15:23:22;6.33;;;5.83;;
19595;SDS011;9945;46.010;8.946;2022-12-18T15:25:56;6.33;;;5.70;;
19595;SDS011;9945;46.010;8.946;2022-12-18T15:28:24;6.63;;;6.03;;
19595;SDS011;9945;46.010;8.946;2022-12-18T15:31:02;6.73;;;5.97;;
19595;SDS011;9945;46.010;8.946;2022-12-18T15:33:59;6.87;;;6.27;;
19595;SDS011;9945;46.010;8.946;2022-12-18T15:36:41;6.93;;;6.20;;
19595;SDS011;9945;46.010;8.946;2022-12-18T15:39:10;6.43;;;5.93;;